EDT,Max TemperatureF,Mean TemperatureF,Min TemperatureF,Max Dew PointF,MeanDew PointF,Min DewpointF,Max Humidity, Mean Humidity, Min Humidity, Max Sea Level PressureIn, Mean Sea Level PressureIn, Min Sea Level PressureIn, Max VisibilityMiles, Mean VisibilityMiles, Min VisibilityMiles, Max Wind SpeedMPH, Mean Wind SpeedMPH, Max Gust SpeedMPH,PrecipitationIn, CloudCover, Events, WindDirDegrees
2013-8-1,75,69,62,64,61,58,96,82,57,29.93,29.90,29.85,10,8,2,12,6,18,0.14,5,Rain,257
2013-8-2,73,64,57,62,57,54,100,77,57,29.97,29.94,29.90,10,9,6,13,5,22,0.01,4,,221
2013-8-3,75,68,61,64,59,50,100,78,44,30.01,29.97,29.92,10,8,2,12,6,17,0.00,4,,275
2013-8-4,71,62,55,57,54,49,94,76,53,30.13,30.07,30.01,10,10,10,10,5,20,0.04,4,Rain,330
2013-8-5,69,59,50,55,50,46,93,68,47,30.15,30.10,30.05,10,10,10,8,1,,0.00,1,,251
2013-8-6,78,67,57,57,53,50,81,60,45,30.06,30.02,29.99,10,10,2,7,1,28,0.00,4,,190
2013-8-7,78,70,63,67,63,55,90,81,64,30.01,29.97,29.92,10,8,0,9,3,20,0.24,3,Fog-Rain,197
2013-8-8,75,70,66,72,68,64,100,92,82,30.02,29.98,29.94,10,6,0,8,3,,0.60,6,Fog-Rain,209
2013-8-9,75,68,60,67,64,51,100,88,57,30.03,29.98,29.95,10,5,0,9,2,,0.07,6,Fog-Rain,285
2013-8-10,75,67,59,59,54,50,87,67,46,30.14,30.10,30.04,10,10,10,9,4,,0.00,3,,342
2013-8-11,78,67,57,57,54,50,93,65,45,30.17,30.12,30.06,10,10,10,7,2,,0.00,3,,12
2013-8-12,73,67,62,65,61,56,94,84,68,30.08,30.02,29.87,10,8,2,12,3,,0.20,6,Rain,203
2013-8-13,68,62,54,63,58,47,96,82,58,29.99,29.88,29.81,10,8,2,14,5,23,0.63,7,Rain,307
2013-8-14,66,59,52,52,49,46,93,75,50,30.17,30.06,29.98,10,10,4,10,6,20,0.04,5,Rain,307
2013-8-15,69,58,48,55,51,46,93,74,51,30.21,30.17,30.14,10,10,10,9,3,,0.00,3,,231
2013-8-16,73,63,53,54,50,46,86,65,37,30.22,30.19,30.15,10,10,10,10,2,,0.00,0,,53
2013-8-17,77,64,54,55,52,50,90,63,44,30.29,30.25,30.23,10,10,10,8,4,,0.00,1,,75
2013-8-18,73,65,57,61,58,54,90,74,59,30.25,30.21,30.16,10,10,8,6,2,,0.00,3,,133
2013-8-19,77,70,62,64,61,57,94,79,60,30.16,30.13,30.09,10,9,2,9,2,,0.01,6,Rain,277
2013-8-20,80,69,59,63,59,57,94,75,48,30.19,30.16,30.11,10,8,2,9,3,,0.01,0,,223
2013-8-21,82,72,62,64,60,58,90,69,47,30.22,30.15,30.07,10,10,7,7,2,,0.00,0,,214
2013-8-22,81,72,64,68,64,61,96,81,58,30.10,30.05,30.00,10,7,2,14,5,17,0.00,3,,235
2013-8-23,79,70,60,64,57,48,93,66,38,30.20,30.10,30.02,10,10,6,12,4,18,0.00,2,Rain,21
2013-8-24,78,64,51,59,52,47,93,66,33,30.34,30.30,30.22,10,10,10,7,4,,0.00,0,,49
2013-8-25,80,67,55,60,55,50,90,65,40,30.37,30.31,30.23,10,10,10,10,3,18,0.00,0,,208
2013-8-26,82,73,64,67,62,56,96,74,49,30.24,30.12,30.01,10,8,1,9,6,21,0.43,3,Rain,219
2013-8-27,79,74,68,71,68,66,100,89,66,30.02,29.99,29.93,10,5,0,14,4,,0.02,3,Fog-Rain,239
2013-8-28,77,72,68,72,68,66,100,92,83,29.99,29.90,29.85,10,4,0,10,5,,2.11,7,Fog-Rain,100
2013-8-29,84,75,66,68,66,64,97,84,55,30.10,30.04,29.97,10,6,0,6,4,,0.01,3,Fog,25
2013-8-30,82,73,64,69,66,63,100,79,58,30.04,29.95,29.83,10,8,2,9,3,,0.01,1,,214
2013-8-31,82,76,68,71,68,66,93,79,65,29.87,29.82,29.77,10,9,5,9,5,,0.00,4,,285